Home > Products > Valid Products > TAF

000
FTUS44 KLCH 031720
TAFBPT
TAF
KBPT 031720Z 0318/0418 VRB06KT P6SM FEW040
     FM040200 VRB04KT P6SM SKC=



000
FTUS44 KLCH 031720
TAFLFT
TAF
KLFT 031720Z 0318/0418 VRB06KT P6SM FEW040
     FM040200 VRB04KT P6SM SKC=



000
FTUS44 KLCH 031720
TAFLCH
TAF
KLCH 031720Z 0318/0418 VRB06KT P6SM FEW040
     FM040200 VRB04KT P6SM SKC=



000
FTUS44 KLCH 031720
TAFARA
TAF
KARA 031720Z 0318/0418 VRB06KT P6SM FEW040
     FM040200 VRB04KT P6SM SKC=



000
FTUS44 KLCH 031720
TAFAEX
TAF
KAEX 031720Z 0318/0418 VRB05KT P6SM SKC=



000
FTUS44 KLCH 031124
TAFBPT
TAF
KBPT 031124Z 0312/0412 VRB04KT P6SM SKC
     FM032000 17008KT P6SM SCT050
     FM040100 20004KT P6SM FEW250=



000
FTUS44 KLCH 031124
TAFLCH
TAF
KLCH 031124Z 0312/0412 VRB04KT P6SM SKC
     FM032000 17008KT P6SM SCT050
     FM040100 20004KT P6SM FEW250=



000
FTUS44 KLCH 031124
TAFARA
TAF
KARA 031124Z 0312/0412 VRB04KT P6SM SKC
     FM032000 18006KT P6SM SCT050
     FM040100 20003KT P6SM FEW250=



000
FTUS44 KLCH 031124
TAFAEX
TAF
KAEX 031124Z 0312/0412 VRB03KT P6SM SKC
     FM031800 13005KT P6SM FEW050=



000
FTUS44 KLCH 031124
TAFLFT
TAF
KLFT 031124Z 0312/0412 VRB04KT P6SM SKC
     FM032000 18006KT P6SM SCT050
     FM040100 21003KT P6SM FEW250=



000
FTUS44 KLCH 031124
TAFARA
TAF
KARA 031124Z 0312/0412 VRB04KT P6SM SKC
     FM032000 18006KT P6SM SCT050
     FM040100 20003KT P6SM FEW250=



000
FTUS44 KLCH 031124
TAFAEX
TAF
KAEX 031124Z 0312/0412 VRB03KT P6SM SKC
     FM031800 13005KT P6SM FEW050=



000
FTUS44 KLCH 031124
TAFLFT
TAF
KLFT 031124Z 0312/0412 VRB04KT P6SM SKC
     FM032000 18006KT P6SM SCT050
     FM040100 21003KT P6SM FEW250=



000
FTUS44 KLCH 031124
TAFLCH
TAF
KLCH 031124Z 0312/0412 VRB04KT P6SM SKC
     FM032000 17008KT P6SM SCT050
     FM040100 20004KT P6SM FEW250=



000
FTUS44 KLCH 031124
TAFBPT
TAF
KBPT 031124Z 0312/0412 VRB04KT P6SM SKC
     FM032000 17008KT P6SM SCT050
     FM040100 20004KT P6SM FEW250=



000
FTUS44 KLCH 030520
TAFBPT
TAF
KBPT 030520Z 0306/0406 VRB03KT P6SM SKC
     FM032000 17008KT P6SM SCT050
     FM040100 20003KT P6SM FEW250=



000
FTUS44 KLCH 030520
TAFAEX
TAF
KAEX 030520Z 0306/0406 00000KT P6SM SKC
     FM031500 VRB04KT P6SM FEW050=



000
FTUS44 KLCH 030520
TAFARA
TAF
KARA 030520Z 0306/0406 VRB04KT P6SM SKC
     FM032000 18006KT P6SM SCT050
     FM040100 20003KT P6SM FEW250=



000
FTUS44 KLCH 030520
TAFLCH
TAF
KLCH 030520Z 0306/0406 VRB03KT P6SM SKC
     FM032000 17008KT P6SM SCT050
     FM040100 20003KT P6SM FEW250=



000
FTUS44 KLCH 030520
TAFLFT
TAF
KLFT 030520Z 0306/0406 VRB04KT P6SM SKC
     FM032000 18006KT P6SM SCT050
     FM040100 21003KT P6SM FEW250=



000
FTUS44 KLCH 030520
TAFAEX
TAF
KAEX 030520Z 0306/0406 00000KT P6SM SKC
     FM031500 VRB04KT P6SM FEW050=



000
FTUS44 KLCH 030520
TAFARA
TAF
KARA 030520Z 0306/0406 VRB04KT P6SM SKC
     FM032000 18006KT P6SM SCT050
     FM040100 20003KT P6SM FEW250=



000
FTUS44 KLCH 030520
TAFBPT
TAF
KBPT 030520Z 0306/0406 VRB03KT P6SM SKC
     FM032000 17008KT P6SM SCT050
     FM040100 20003KT P6SM FEW250=



000
FTUS44 KLCH 030520
TAFLCH
TAF
KLCH 030520Z 0306/0406 VRB03KT P6SM SKC
     FM032000 17008KT P6SM SCT050
     FM040100 20003KT P6SM FEW250=



000
FTUS44 KLCH 030520
TAFLFT
TAF
KLFT 030520Z 0306/0406 VRB04KT P6SM SKC
     FM032000 18006KT P6SM SCT050
     FM040100 21003KT P6SM FEW250=



000
FTUS44 KLCH 022324
TAFLCH
TAF
KLCH 022324Z 0300/0324 VRB04KT P6SM FEW250
     FM032000 17008KT P6SM SCT050=



000
FTUS44 KLCH 022324
TAFLFT
TAF
KLFT 022324Z 0300/0324 VRB04KT P6SM FEW250
     FM032000 18006KT P6SM SCT050=



000
FTUS44 KLCH 022324
TAFBPT
TAF
KBPT 022324Z 0300/0324 VRB04KT P6SM FEW250
     FM032000 17008KT P6SM SCT050=



000
FTUS44 KLCH 022324
TAFAEX
TAF
KAEX 022324Z 0300/0324 VRB03KT P6SM SKC
     FM032100 VRB06KT P6SM FEW050=



000
FTUS44 KLCH 022324
TAFARA
TAF
KARA 022324Z 0300/0324 VRB04KT P6SM FEW250
     FM032000 18006KT P6SM SCT050=



000
FTUS44 KLCH 022324
TAFBPT
TAF
KBPT 022324Z 0300/0324 VRB04KT P6SM FEW250
     FM032000 17008KT P6SM SCT050=



000
FTUS44 KLCH 022324
TAFARA
TAF
KARA 022324Z 0300/0324 VRB04KT P6SM FEW250
     FM032000 18006KT P6SM SCT050=



000
FTUS44 KLCH 022324
TAFLFT
TAF
KLFT 022324Z 0300/0324 VRB04KT P6SM FEW250
     FM032000 18006KT P6SM SCT050=



000
FTUS44 KLCH 022324
TAFAEX
TAF
KAEX 022324Z 0300/0324 VRB03KT P6SM SKC
     FM032100 VRB06KT P6SM FEW050=



000
FTUS44 KLCH 022028 AAB
TAFLCH
TAF AMD
KLCH 022028Z 0220/0318 14007KT P6SM FEW050 FEW250
     FM030000 VRB03KT P6SM SKC=



000
FTUS44 KLCH 022026 AAA
TAFLFT
TAF AMD
KLFT 022026Z 0220/0318 04007KT P6SM FEW050 FEW250
     FM030000 VRB03KT P6SM SKC=



000
FTUS44 KLCH 022026 AAA
TAFLFT
TAF AMD
KLFT 022026Z 0220/0318 04007KT P6SM FEW050 FEW250
     FM030000 VRB03KT P6SM SKC=



000
FTUS44 KLCH 021720
TAFLCH
TAF
KLCH 021720Z 0218/0318 VRB04KT P6SM FEW050 FEW250=



000
FTUS44 KLCH 021720
TAFLFT
TAF
KLFT 021720Z 0218/0318 VRB04KT P6SM FEW050 FEW250=



000
FTUS44 KLCH 021720
TAFLCH
TAF
KLCH 021720Z 0218/0318 VRB04KT P6SM FEW050 FEW250=



000
FTUS44 KLCH 021720
TAFLFT
TAF
KLFT 021720Z 0218/0318 VRB04KT P6SM FEW050 FEW250=



000
FTUS44 KLCH 021720
TAFBPT
TAF
KBPT 021720Z 0218/0318 VRB05KT P6SM FEW050 FEW250=



000
FTUS44 KLCH 021720
TAFAEX
TAF
KAEX 021720Z 0218/0318 07006KT P6SM FEW060 FEW250
     FM030200 VRB03KT P6SM SKC=



000
FTUS44 KLCH 021720
TAFARA
TAF
KARA 021720Z 0218/0318 VRB05KT P6SM FEW050 FEW250=



000
FTUS44 KLCH 021720
TAFBPT
TAF
KBPT 021720Z 0218/0318 VRB05KT P6SM FEW050 FEW250=



000
FTUS44 KLCH 021720
TAFAEX
TAF
KAEX 021720Z 0218/0318 07006KT P6SM FEW060 FEW250
     FM030200 VRB03KT P6SM SKC=



000
FTUS44 KLCH 021720
TAFARA
TAF
KARA 021720Z 0218/0318 VRB05KT P6SM FEW050 FEW250=



000
FTUS44 KLCH 021120
TAFAEX
TAF
KAEX 021120Z 0212/0312 VRB05KT P6SM FEW250=



000
FTUS44 KLCH 021120
TAFLFT
TAF
KLFT 021120Z 0212/0312 36003KT P6SM SKC
     FM022200 18006KT P6SM FEW250
     FM030100 00000KT P6SM FEW250=



000
FTUS44 KLCH 021120
TAFBPT
TAF
KBPT 021120Z 0212/0312 36004KT P6SM SKC
     FM022100 18008KT P6SM FEW250
     FM030100 00000KT P6SM FEW250=



000
FTUS44 KLCH 021120
TAFARA
TAF
KARA 021120Z 0212/0312 36003KT P6SM SKC
     FM022200 18007KT P6SM FEW250
     FM030100 00000KT P6SM FEW250=



000
FTUS44 KLCH 021120
TAFBPT
TAF
KBPT 021120Z 0212/0312 36004KT P6SM SKC
     FM022100 18008KT P6SM FEW250
     FM030100 00000KT P6SM FEW250=



000
FTUS44 KLCH 021120
TAFAEX
TAF
KAEX 021120Z 0212/0312 VRB05KT P6SM FEW250=



000
FTUS44 KLCH 021120
TAFLCH
TAF
KLCH 021120Z 0212/0312 02004KT P6SM SKC
     FM022200 18008KT P6SM FEW250
     FM030100 00000KT P6SM FEW250=



000
FTUS44 KLCH 021120
TAFARA
TAF
KARA 021120Z 0212/0312 36003KT P6SM SKC
     FM022200 18007KT P6SM FEW250
     FM030100 00000KT P6SM FEW250=



000
FTUS44 KLCH 021120
TAFLFT
TAF
KLFT 021120Z 0212/0312 36003KT P6SM SKC
     FM022200 18006KT P6SM FEW250
     FM030100 00000KT P6SM FEW250=



000
FTUS44 KLCH 021120
TAFLCH
TAF
KLCH 021120Z 0212/0312 02004KT P6SM SKC
     FM022200 18008KT P6SM FEW250
     FM030100 00000KT P6SM FEW250=



000
FTUS44 KLCH 020520
TAFLCH
TAF
KLCH 020520Z 0206/0306 00000KT P6SM SKC
     FM021500 VRB06KT P6SM FEW250=



000
FTUS44 KLCH 020520
TAFAEX
TAF
KAEX 020520Z 0206/0306 00000KT P6SM SKC
     FM021500 07006KT P6SM FEW250
     FM030100 VRB03KT P6SM SKC=



000
FTUS44 KLCH 020520
TAFARA
TAF
KARA 020520Z 0206/0306 01003KT P6SM SKC
     FM021500 VRB06KT P6SM FEW050 SCT250
     FM030100 21003KT P6SM FEW250=



000
FTUS44 KLCH 020520
TAFLFT
TAF
KLFT 020520Z 0206/0306 00000KT P6SM SKC
     FM021500 VRB06KT P6SM FEW050 SCT250
     FM030100 21003KT P6SM FEW250=



000
FTUS44 KLCH 020520
TAFBPT
TAF
KBPT 020520Z 0206/0306 01003KT P6SM SKC
     FM021500 VRB06KT P6SM FEW250=



000
FTUS44 KLCH 012321
TAFLFT
TAF
KLFT 012321Z 0200/0224 02004KT P6SM SKC
     FM021500 VRB06KT P6SM FEW050 SCT250=



000
FTUS44 KLCH 012321
TAFARA
TAF
KARA 012321Z 0200/0224 04008KT P6SM FEW250
     FM020100 02003KT P6SM SKC
     FM021500 VRB06KT P6SM FEW050 SCT250=



000
FTUS44 KLCH 012321
TAFBPT
TAF
KBPT 012321Z 0200/0224 05008KT P6SM FEW250
     FM020100 03003KT P6SM SKC
     FM021500 VRB06KT P6SM FEW050 SCT250=



000
FTUS44 KLCH 012321
TAFLCH
TAF
KLCH 012321Z 0200/0224 08008KT P6SM FEW250
     FM020100 04003KT P6SM SKC
     FM021500 VRB06KT P6SM FEW050 SCT250=



000
FTUS44 KLCH 012321
TAFBPT
TAF
KBPT 012321Z 0200/0224 05008KT P6SM FEW250
     FM020100 03003KT P6SM SKC
     FM021500 VRB06KT P6SM FEW050 SCT250=



000
FTUS44 KLCH 012321
TAFAEX
TAF
KAEX 012321Z 0200/0224 04008KT P6SM SKC
     FM020200 00000KT P6SM SKC
     FM021500 07006KT P6SM FEW250=



000
FTUS44 KLCH 012321
TAFLFT
TAF
KLFT 012321Z 0200/0224 02004KT P6SM SKC
     FM021500 VRB06KT P6SM FEW050 SCT250=



000
FTUS44 KLCH 012321
TAFARA
TAF
KARA 012321Z 0200/0224 04008KT P6SM FEW250
     FM020100 02003KT P6SM SKC
     FM021500 VRB06KT P6SM FEW050 SCT250=



000
FTUS44 KLCH 012321
TAFAEX
TAF
KAEX 012321Z 0200/0224 04008KT P6SM SKC
     FM020200 00000KT P6SM SKC
     FM021500 07006KT P6SM FEW250=



000
FTUS44 KLCH 012321
TAFLCH
TAF
KLCH 012321Z 0200/0224 08008KT P6SM FEW250
     FM020100 04003KT P6SM SKC
     FM021500 VRB06KT P6SM FEW050 SCT250=



000
FTUS44 KLCH 011720
TAFLCH
TAF
KLCH 011720Z 0118/0218 05010KT P6SM SCT250
     FM020100 03003KT P6SM SKC=



000
FTUS44 KLCH 011720
TAFARA
TAF
KARA 011720Z 0118/0218 03010KT P6SM SCT250
     FM020100 02003KT P6SM SKC=



000
FTUS44 KLCH 011720
TAFAEX
TAF
KAEX 011720Z 0118/0218 06010KT P6SM SCT250
     FM020000 03003KT P6SM SKC=



000
FTUS44 KLCH 011720
TAFBPT
TAF
KBPT 011720Z 0118/0218 05010KT P6SM SCT250
     FM020100 02003KT P6SM SKC=



000
FTUS44 KLCH 011720
TAFLFT
TAF
KLFT 011720Z 0118/0218 04009KT P6SM SCT250
     FM020000 01003KT P6SM SKC=



000
FTUS44 KLCH 011720
TAFBPT
TAF
KBPT 011720Z 0118/0218 05010KT P6SM SCT250
     FM020100 02003KT P6SM SKC=



000
FTUS44 KLCH 011720
TAFLFT
TAF
KLFT 011720Z 0118/0218 04009KT P6SM SCT250
     FM020000 01003KT P6SM SKC=



000
FTUS44 KLCH 011720
TAFARA
TAF
KARA 011720Z 0118/0218 03010KT P6SM SCT250
     FM020100 02003KT P6SM SKC=



000
FTUS44 KLCH 011720
TAFLCH
TAF
KLCH 011720Z 0118/0218 05010KT P6SM SCT250
     FM020100 03003KT P6SM SKC=



000
FTUS44 KLCH 011720
TAFAEX
TAF
KAEX 011720Z 0118/0218 06010KT P6SM SCT250
     FM020000 03003KT P6SM SKC=



000
FTUS44 KLCH 011120
TAFARA
TAF
KARA 011120Z 0112/0212 01008KT P6SM SKC
     FM011500 03012KT P6SM SCT250
     FM020100 02003KT P6SM SKC=



000
FTUS44 KLCH 011120
TAFARA
TAF
KARA 011120Z 0112/0212 01008KT P6SM SKC
     FM011500 03012KT P6SM SCT250
     FM020100 02003KT P6SM SKC=



000
FTUS44 KLCH 011120
TAFLFT
TAF
KLFT 011120Z 0112/0212 02006KT P6SM SKC
     FM011500 03010KT P6SM SCT250
     FM020000 01003KT P6SM SKC=



000
FTUS44 KLCH 011120
TAFLFT
TAF
KLFT 011120Z 0112/0212 02006KT P6SM SKC
     FM011500 03010KT P6SM SCT250
     FM020000 01003KT P6SM SKC=



000
FTUS44 KLCH 011120
TAFLCH
TAF
KLCH 011120Z 0112/0212 04008KT P6SM SKC
     FM011400 05012KT P6SM SCT250
     FM020100 03003KT P6SM SKC=



000
FTUS44 KLCH 011120
TAFAEX
TAF
KAEX 011120Z 0112/0212 02005KT P6SM FEW250
     FM011600 04012KT P6SM SCT250
     FM020000 03003KT P6SM SKC=



000
FTUS44 KLCH 011120
TAFBPT
TAF
KBPT 011120Z 0112/0212 02008KT P6SM SKC
     FM011400 04012KT P6SM SCT250
     FM020100 02003KT P6SM SKC=



000
FTUS44 KLCH 011120
TAFLCH
TAF
KLCH 011120Z 0112/0212 04008KT P6SM SKC
     FM011400 05012KT P6SM SCT250
     FM020100 03003KT P6SM SKC=



000
FTUS44 KLCH 011120
TAFAEX
TAF
KAEX 011120Z 0112/0212 02005KT P6SM FEW250
     FM011600 04012KT P6SM SCT250
     FM020000 03003KT P6SM SKC=



000
FTUS44 KLCH 011120
TAFBPT
TAF
KBPT 011120Z 0112/0212 02008KT P6SM SKC
     FM011400 04012KT P6SM SCT250
     FM020100 02003KT P6SM SKC=



000
FTUS44 KLCH 010520
TAFBPT
TAF
KBPT 010520Z 0106/0206 02005KT P6SM SKC
     FM011400 05012KT P6SM SCT250
     FM020100 04003KT P6SM SKC=



000
FTUS44 KLCH 010520
TAFARA
TAF
KARA 010520Z 0106/0206 01005KT P6SM SKC
     FM011400 03010KT P6SM SCT250
     FM020100 03003KT P6SM SKC=



000
FTUS44 KLCH 010520
TAFLFT
TAF
KLFT 010520Z 0106/0206 02003KT P6SM SKC
     FM011400 03010KT P6SM SCT250
     FM020100 03003KT P6SM SKC=



000
FTUS44 KLCH 010520
TAFAEX
TAF
KAEX 010520Z 0106/0206 01003KT P6SM SKC
     FM011400 04010KT P6SM SCT250
     FM020100 03003KT P6SM SKC=



000
FTUS44 KLCH 010520
TAFLCH
TAF
KLCH 010520Z 0106/0206 04003KT P6SM SKC
     FM011400 05010KT P6SM SCT250
     FM020100 04003KT P6SM SKC=



000
FTUS44 KLCH 010520
TAFARA
TAF
KARA 010520Z 0106/0206 01005KT P6SM SKC
     FM011400 03010KT P6SM SCT250
     FM020100 03003KT P6SM SKC=



000
FTUS44 KLCH 010520
TAFAEX
TAF
KAEX 010520Z 0106/0206 01003KT P6SM SKC
     FM011400 04010KT P6SM SCT250
     FM020100 03003KT P6SM SKC=



000
FTUS44 KLCH 010520
TAFLCH
TAF
KLCH 010520Z 0106/0206 04003KT P6SM SKC
     FM011400 05010KT P6SM SCT250
     FM020100 04003KT P6SM SKC=



000
FTUS44 KLCH 010520
TAFLFT
TAF
KLFT 010520Z 0106/0206 02003KT P6SM SKC
     FM011400 03010KT P6SM SCT250
     FM020100 03003KT P6SM SKC=



000
FTUS44 KLCH 010520
TAFBPT
TAF
KBPT 010520Z 0106/0206 02005KT P6SM SKC
     FM011400 05012KT P6SM SCT250
     FM020100 04003KT P6SM SKC=



000
FTUS44 KLCH 312320
TAFBPT
TAF
KBPT 312320Z 0100/0124 02010KT P6SM FEW250
     FM010200 03005KT P6SM SKC
     FM011400 05011KT P6SM SCT250=



000
FTUS44 KLCH 312320
TAFAEX
TAF
KAEX 312320Z 0100/0124 02005KT P6SM SKC
     FM011400 04010KT P6SM SCT250=



000
FTUS44 KLCH 312320
TAFLCH
TAF
KLCH 312320Z 0100/0124 04005KT P6SM FEW250
     FM011400 05010KT P6SM SCT250=



000
FTUS44 KLCH 312320
TAFLFT
TAF
KLFT 312320Z 0100/0124 03010KT P6SM FEW250
     FM010200 02004KT P6SM SKC
     FM011400 03010KT P6SM SCT250=



000
FTUS44 KLCH 312320
TAFARA
TAF
KARA 312320Z 0100/0124 02010KT P6SM FEW250
     FM010200 02005KT P6SM SKC
     FM011400 04010KT P6SM SCT250=



    US Dept of Commerce
    National Oceanic and Atmospheric Administration
    National Weather Service
    1325 East West Highway
    Silver Spring, MD 20910
    Page Author: NWS Internet Services Team
Disclaimer
Information Quality
Credits
Glossary
Privacy Policy
Freedom of Information Act (FOIA)
About Us
Career Opportunities